TimeEST,TemperatureF,Dew PointF,Humidity,Sea Level PressureIn,VisibilityMPH,Wind Direction,Wind SpeedMPH,Gust SpeedMPH,PrecipitationIn,Events,Conditions,WindDirDegrees,DateUTC
12:53 AM,25.0,10.9,55,30.38,10.0,South,8.1,-,N/A,,Overcast,190,2013-01-19 05:53:00
1:53 AM,27.0,14.0,58,30.35,10.0,South,6.9,-,N/A,,Overcast,180,2013-01-19 06:53:00
2:53 AM,30.0,15.1,54,30.34,10.0,South,10.4,-,N/A,,Mostly Cloudy,180,2013-01-19 07:53:00
3:53 AM,30.0,15.1,54,30.32,10.0,South,9.2,-,N/A,,Scattered Clouds,190,2013-01-19 08:53:00
4:53 AM,32.0,15.1,50,30.28,10.0,SSW,11.5,20.7,N/A,,Mostly Cloudy,200,2013-01-19 09:53:00
5:53 AM,33.1,16.0,50,30.25,10.0,SW,15.0,27.6,N/A,,Partly Cloudy,220,2013-01-19 10:53:00
6:53 AM,34.0,19.0,54,30.25,10.0,SSW,12.7,23.0,N/A,,Partly Cloudy,210,2013-01-19 11:53:00
7:53 AM,35.1,19.9,54,30.23,10.0,SSW,13.8,21.9,N/A,,Clear,210,2013-01-19 12:53:00
8:53 AM,37.0,21.9,54,30.22,10.0,SSW,13.8,26.5,N/A,,Clear,210,2013-01-19 13:53:00
9:53 AM,37.0,23.0,57,30.21,10.0,SSW,11.5,29.9,N/A,,Clear,210,2013-01-19 14:53:00
10:53 AM,39.0,24.1,55,30.18,10.0,SSW,12.7,21.9,N/A,,Clear,210,2013-01-19 15:53:00
11:53 AM,39.9,25.0,55,30.13,10.0,SSW,16.1,-,N/A,,Clear,200,2013-01-19 16:53:00
12:53 PM,41.0,25.0,53,30.09,10.0,South,9.2,20.7,N/A,,Partly Cloudy,190,2013-01-19 17:53:00
1:53 PM,43.0,26.1,51,30.06,10.0,SSW,6.9,17.3,N/A,,Clear,200,2013-01-19 18:53:00
2:53 PM,44.1,26.1,49,30.05,10.0,SSW,11.5,-,N/A,,Clear,200,2013-01-19 19:53:00
3:53 PM,45.0,26.1,48,30.04,10.0,SSW,12.7,17.3,N/A,,Clear,200,2013-01-19 20:53:00
4:53 PM,44.1,25.0,47,30.03,10.0,South,9.2,-,N/A,,Clear,190,2013-01-19 21:53:00
5:53 PM,43.0,25.0,49,30.02,10.0,South,6.9,-,N/A,,Clear,190,2013-01-19 22:53:00
6:53 PM,41.0,26.1,55,30.01,10.0,South,5.8,-,N/A,,Clear,190,2013-01-19 23:53:00
7:53 PM,41.0,30.0,65,29.99,10.0,South,6.9,-,N/A,,Clear,180,2013-01-20 00:53:00
8:53 PM,42.1,32.0,67,29.98,10.0,South,6.9,-,N/A,,Clear,180,2013-01-20 01:53:00
9:53 PM,41.0,32.0,70,29.96,10.0,South,6.9,-,N/A,,Clear,180,2013-01-20 02:53:00
10:53 PM,43.0,30.9,62,29.92,10.0,South,9.2,-,N/A,,Clear,180,2013-01-20 03:53:00
11:53 PM,42.1,30.0,62,29.89,10.0,South,9.2,-,N/A,,Clear,180,2013-01-20 04:53:00